Time,TemperatureF,DewpointF,PressureIn,WindDirection,WindDirectionDegrees,WindSpeedMPH,WindSpeedGustMPH,Humidity,HourlyPrecipIn,Conditions,Clouds,dailyrainin,SoftwareType,DateUTC
2013-07-11 00:01:00,67.4,66.8,29.96,WSW,254,2.0,4.0,98,0.09,,,0.43,Wunderground v.1.15,2013-07-11 04:01:00,
2013-07-11 00:03:00,67.4,66.8,29.96,WSW,254,2.0,4.0,98,0.09,,,0.43,Wunderground v.1.15,2013-07-11 04:03:00,
2013-07-11 00:04:00,67.4,66.8,29.96,WSW,254,0.0,4.0,98,0.09,,,0.43,Wunderground v.1.15,2013-07-11 04:04:00,
2013-07-11 00:06:00,67.4,66.8,29.96,WSW,254,3.0,4.0,98,0.13,,,0.44,Wunderground v.1.15,2013-07-11 04:06:00,
2013-07-11 00:11:00,67.4,66.8,29.96,WSW,254,2.0,2.0,98,0.17,,,0.45,Wunderground v.1.15,2013-07-11 04:11:00,
2013-07-11 00:16:00,67.4,66.8,29.96,WSW,254,3.0,3.0,98,0.17,,,0.46,Wunderground v.1.15,2013-07-11 04:16:00,
2013-07-11 00:17:00,67.4,66.8,29.96,WSW,254,0.0,3.0,98,0.16,,,0.47,Wunderground v.1.15,2013-07-11 04:17:00,
2013-07-11 00:22:00,67.6,66.7,29.96,WSW,254,3.0,4.0,97,0.14,,,0.48,Wunderground v.1.15,2013-07-11 04:22:00,
2013-07-11 00:27:00,67.6,66.7,29.96,WSW,254,5.0,5.0,97,0.12,,,0.49,Wunderground v.1.15,2013-07-11 04:27:00,
2013-07-11 00:33:00,67.8,66.9,29.95,WSW,254,6.0,6.0,97,0.11,,,0.50,Wunderground v.1.15,2013-07-11 04:33:00,
2013-07-11 00:38:00,67.8,66.9,29.95,WSW,254,3.0,6.0,97,0.11,,,0.51,Wunderground v.1.15,2013-07-11 04:38:00,
2013-07-11 00:43:00,67.9,67.0,29.95,WSW,254,2.0,4.0,97,0.10,,,0.51,Wunderground v.1.15,2013-07-11 04:43:00,
2013-07-11 00:48:00,68.1,67.5,29.94,WSW,254,2.0,4.0,98,0.10,,,0.52,Wunderground v.1.15,2013-07-11 04:48:00,
2013-07-11 00:53:00,68.1,67.5,29.94,WSW,254,0.0,3.0,98,0.08,,,0.53,Wunderground v.1.15,2013-07-11 04:53:00,
2013-07-11 00:59:00,68.1,67.5,29.94,WSW,254,0.0,3.0,98,0.07,,,0.53,Wunderground v.1.15,2013-07-11 04:59:00,
2013-07-11 01:04:00,68.1,67.5,29.94,WSW,254,0.0,0.0,98,0.06,,,0.54,Wunderground v.1.15,2013-07-11 05:04:00,
2013-07-11 01:09:00,68.1,67.5,29.94,WSW,254,0.0,3.0,98,0.06,,,0.54,Wunderground v.1.15,2013-07-11 05:09:00,
2013-07-11 01:14:00,68.1,67.5,29.94,WSW,254,0.0,0.0,98,0.07,,,0.55,Wunderground v.1.15,2013-07-11 05:14:00,
2013-07-11 01:19:00,68.1,67.5,29.94,WSW,254,3.0,3.0,98,0.08,,,0.56,Wunderground v.1.15,2013-07-11 05:19:00,
2013-07-11 01:25:00,68.1,67.5,29.94,WSW,254,0.0,1.0,98,0.08,,,0.56,Wunderground v.1.15,2013-07-11 05:25:00,
2013-07-11 01:30:00,68.1,67.8,29.95,WSW,254,0.0,2.0,99,0.07,,,0.57,Wunderground v.1.15,2013-07-11 05:30:00,
2013-07-11 01:35:00,68.3,68.0,29.95,WSW,254,0.0,3.0,99,0.07,,,0.00,Wunderground v.1.15,2013-07-11 05:35:00,
2013-07-11 01:40:00,68.3,67.7,29.95,WSW,254,0.0,3.0,98,0.04,,,0.00,Wunderground v.1.15,2013-07-11 05:40:00,
2013-07-11 01:46:00,68.4,67.8,29.95,WSW,254,4.0,4.0,98,0.00,,,0.00,Wunderground v.1.15,2013-07-11 05:46:00,
2013-07-11 01:51:00,68.4,67.8,29.95,WSW,254,1.0,1.0,98,0.00,,,0.00,Wunderground v.1.15,2013-07-11 05:51:00,
2013-07-11 01:56:00,68.4,67.8,29.95,WSW,254,0.0,1.0,98,0.00,,,0.01,Wunderground v.1.15,2013-07-11 05:56:00,
2013-07-11 02:01:00,68.4,67.8,29.95,WSW,254,2.0,2.0,98,0.00,,,0.01,Wunderground v.1.15,2013-07-11 06:01:00,
2013-07-11 02:06:00,68.4,67.8,29.95,WSW,254,0.0,5.0,98,0.00,,,0.01,Wunderground v.1.15,2013-07-11 06:06:00,
2013-07-11 02:11:00,68.4,67.8,29.95,WSW,254,2.0,4.0,98,0.00,,,0.01,Wunderground v.1.15,2013-07-11 06:11:00,
2013-07-11 02:16:00,68.4,67.8,29.94,WSW,254,0.0,4.0,98,0.00,,,0.01,Wunderground v.1.15,2013-07-11 06:16:00,
2013-07-11 02:21:00,68.4,67.8,29.94,WSW,254,3.0,4.0,98,0.00,,,0.01,Wunderground v.1.15,2013-07-11 06:21:00,
2013-07-11 02:26:00,68.4,67.8,29.94,WSW,254,2.0,4.0,98,0.00,,,0.01,Wunderground v.1.15,2013-07-11 06:26:00,
2013-07-11 02:31:00,68.4,67.8,29.93,WSW,254,2.0,2.0,98,0.00,,,0.01,Wunderground v.1.15,2013-07-11 06:31:00,
2013-07-11 02:36:00,68.3,67.7,29.93,WSW,254,5.0,6.0,98,0.00,,,0.01,Wunderground v.1.15,2013-07-11 06:36:00,
2013-07-11 02:41:00,68.3,67.7,29.93,WSW,254,0.0,3.0,98,0.00,,,0.01,Wunderground v.1.15,2013-07-11 06:41:00,
2013-07-11 02:46:00,68.3,67.4,29.93,WSW,254,3.0,5.0,97,0.00,,,0.01,Wunderground v.1.15,2013-07-11 06:46:00,
2013-07-11 02:51:00,68.4,67.5,29.93,WSW,254,0.0,2.0,97,0.00,,,0.01,Wunderground v.1.15,2013-07-11 06:51:00,
2013-07-11 02:56:00,68.4,67.5,29.93,WSW,254,1.0,3.0,97,0.00,,,0.01,Wunderground v.1.15,2013-07-11 06:56:00,
2013-07-11 03:01:00,68.4,67.5,29.92,WSW,254,0.0,1.0,97,0.00,,,0.01,Wunderground v.1.15,2013-07-11 07:01:00,
2013-07-11 03:06:00,68.4,67.5,29.92,WSW,254,3.0,4.0,97,0.00,,,0.01,Wunderground v.1.15,2013-07-11 07:06:00,
2013-07-11 03:11:00,68.4,67.5,29.92,WSW,254,0.0,1.0,97,0.00,,,0.01,Wunderground v.1.15,2013-07-11 07:11:00,
2013-07-11 03:16:00,68.4,67.5,29.92,WSW,254,0.0,3.0,97,0.00,,,0.01,Wunderground v.1.15,2013-07-11 07:16:00,
2013-07-11 03:21:00,68.4,67.8,29.92,WSW,254,0.0,0.0,98,0.00,,,0.01,Wunderground v.1.15,2013-07-11 07:21:00,
2013-07-11 03:26:00,68.4,67.8,29.92,WSW,254,0.0,1.0,98,0.00,,,0.01,Wunderground v.1.15,2013-07-11 07:26:00,
2013-07-11 03:31:00,68.4,67.5,29.92,WSW,254,0.0,0.0,97,0.00,,,0.01,Wunderground v.1.15,2013-07-11 07:31:00,
2013-07-11 03:37:00,68.6,67.7,29.92,WSW,254,0.0,2.0,97,0.00,,,0.01,Wunderground v.1.15,2013-07-11 07:37:00,
2013-07-11 03:42:00,68.6,67.7,29.92,WSW,254,0.0,0.0,97,0.00,,,0.01,Wunderground v.1.15,2013-07-11 07:42:00,
2013-07-11 03:47:00,68.6,67.7,29.91,WSW,254,0.0,1.0,97,0.00,,,0.01,Wunderground v.1.15,2013-07-11 07:47:00,
2013-07-11 03:52:00,68.6,67.7,29.91,WSW,254,0.0,0.0,97,0.00,,,0.01,Wunderground v.1.15,2013-07-11 07:52:00,
2013-07-11 03:57:00,68.6,68.0,29.91,WSW,254,0.0,4.0,98,0.00,,,0.01,Wunderground v.1.15,2013-07-11 07:57:00,
2013-07-11 04:02:00,68.6,68.0,29.91,WSW,254,0.0,1.0,98,0.00,,,0.01,Wunderground v.1.15,2013-07-11 08:02:00,
2013-07-11 04:07:00,68.6,68.0,29.91,WSW,254,0.0,1.0,98,0.00,,,0.01,Wunderground v.1.15,2013-07-11 08:07:00,
2013-07-11 04:12:00,68.8,67.9,29.91,WSW,254,3.0,4.0,97,0.00,,,0.01,Wunderground v.1.15,2013-07-11 08:12:00,
2013-07-11 04:17:00,68.8,67.9,29.91,WSW,254,2.0,4.0,97,0.00,,,0.01,Wunderground v.1.15,2013-07-11 08:17:00,
2013-07-11 04:22:00,68.9,67.7,29.91,WSW,254,0.0,4.0,96,0.00,,,0.01,Wunderground v.1.15,2013-07-11 08:22:00,
2013-07-11 04:27:00,69.1,67.9,29.91,WSW,254,0.0,4.0,96,0.00,,,0.01,Wunderground v.1.15,2013-07-11 08:27:00,
2013-07-11 04:32:00,69.3,67.8,29.91,WSW,254,0.0,0.0,95,0.00,,,0.01,Wunderground v.1.15,2013-07-11 08:32:00,
2013-07-11 04:37:00,69.3,67.8,29.91,WSW,254,0.0,0.0,95,0.00,,,0.01,Wunderground v.1.15,2013-07-11 08:37:00,
2013-07-11 04:42:00,69.3,68.1,29.91,WSW,254,0.0,0.0,96,0.00,,,0.01,Wunderground v.1.15,2013-07-11 08:42:00,
2013-07-11 04:47:00,69.1,67.9,29.91,WSW,254,0.0,0.0,96,0.00,,,0.01,Wunderground v.1.15,2013-07-11 08:47:00,
2013-07-11 04:52:00,68.9,67.7,29.91,WSW,254,0.0,0.0,96,0.00,,,0.01,Wunderground v.1.15,2013-07-11 08:52:00,
2013-07-11 04:57:00,68.8,67.9,29.91,WSW,254,0.0,0.0,97,0.00,,,0.01,Wunderground v.1.15,2013-07-11 08:57:00,
2013-07-11 05:02:00,68.8,67.9,29.90,WSW,254,0.0,0.0,97,0.00,,,0.01,Wunderground v.1.15,2013-07-11 09:02:00,
2013-07-11 05:07:00,68.6,67.7,29.90,WSW,254,0.0,0.0,97,0.00,,,0.01,Wunderground v.1.15,2013-07-11 09:07:00,
2013-07-11 05:12:00,68.4,67.5,29.90,WSW,254,0.0,0.0,97,0.00,,,0.01,Wunderground v.1.15,2013-07-11 09:12:00,
2013-07-11 05:17:00,68.4,67.5,29.91,WSW,254,0.0,0.0,97,0.00,,,0.01,Wunderground v.1.15,2013-07-11 09:17:00,
2013-07-11 05:23:00,68.3,67.4,29.91,WSW,254,0.0,0.0,97,0.00,,,0.01,Wunderground v.1.15,2013-07-11 09:23:00,
2013-07-11 05:28:00,68.1,67.2,29.91,WSW,254,0.0,0.0,97,0.00,,,0.01,Wunderground v.1.15,2013-07-11 09:28:00,
2013-07-11 05:33:00,67.9,67.3,29.91,WSW,254,0.0,0.0,98,0.00,,,0.01,Wunderground v.1.15,2013-07-11 09:33:00,
2013-07-11 05:38:00,67.9,67.3,29.91,WSW,254,0.0,0.0,98,0.00,,,0.01,Wunderground v.1.15,2013-07-11 09:38:00,
2013-07-11 05:43:00,67.8,67.2,29.91,WSW,254,0.0,0.0,98,0.00,,,0.01,Wunderground v.1.15,2013-07-11 09:43:00,
2013-07-11 05:48:00,67.6,67.0,29.92,WSW,254,0.0,0.0,98,0.00,,,0.01,Wunderground v.1.15,2013-07-11 09:48:00,
2013-07-11 05:53:00,67.6,67.0,29.92,WSW,254,0.0,0.0,98,0.00,,,0.01,Wunderground v.1.15,2013-07-11 09:53:00,
2013-07-11 05:58:00,67.4,66.8,29.92,WSW,254,0.0,0.0,98,0.00,,,0.01,Wunderground v.1.15,2013-07-11 09:58:00,
2013-07-11 06:03:00,67.4,66.8,29.92,WSW,254,0.0,0.0,98,0.00,,,0.01,Wunderground v.1.15,2013-07-11 10:03:00,
2013-07-11 06:08:00,67.3,66.7,29.92,WSW,254,0.0,0.0,98,0.00,,,0.01,Wunderground v.1.15,2013-07-11 10:08:00,
2013-07-11 06:13:00,67.3,67.0,29.92,WSW,254,0.0,0.0,99,0.00,,,0.01,Wunderground v.1.15,2013-07-11 10:13:00,
2013-07-11 06:18:00,67.3,67.0,29.92,WSW,254,0.0,0.0,99,0.00,,,0.01,Wunderground v.1.15,2013-07-11 10:18:00,
2013-07-11 06:23:00,67.3,67.0,29.92,WSW,254,0.0,0.0,99,0.00,,,0.01,Wunderground v.1.15,2013-07-11 10:23:00,
2013-07-11 06:28:00,67.1,66.8,29.92,WSW,254,0.0,0.0,99,0.00,,,0.01,Wunderground v.1.15,2013-07-11 10:28:00,
2013-07-11 06:33:00,67.1,66.8,29.92,WSW,254,0.0,0.0,99,0.00,,,0.01,Wunderground v.1.15,2013-07-11 10:33:00,
2013-07-11 06:38:00,67.1,66.8,29.92,WSW,254,0.0,0.0,99,0.00,,,0.01,Wunderground v.1.15,2013-07-11 10:38:00,
2013-07-11 06:43:00,67.1,66.8,29.92,WSW,254,0.0,1.0,99,0.00,,,0.01,Wunderground v.1.15,2013-07-11 10:43:00,
2013-07-11 06:48:00,67.1,66.8,29.95,WSW,254,0.0,1.0,99,0.00,,,0.01,Wunderground v.1.15,2013-07-11 10:48:00,
2013-07-11 06:53:00,66.9,66.6,29.95,WSW,254,0.0,0.0,99,0.00,,,0.01,Wunderground v.1.15,2013-07-11 10:53:00,
2013-07-11 06:58:00,66.9,66.9,29.95,WSW,254,0.0,0.0,100,0.00,,,0.01,Wunderground v.1.15,2013-07-11 10:58:00,
2013-07-11 07:04:00,66.9,66.9,29.95,WSW,254,0.0,0.0,100,0.00,,,0.01,Wunderground v.1.15,2013-07-11 11:04:00,
2013-07-11 07:09:00,66.9,66.9,29.95,WSW,254,0.0,0.0,100,0.00,,,0.01,Wunderground v.1.15,2013-07-11 11:09:00,
2013-07-11 07:14:00,66.9,66.9,29.95,WSW,254,0.0,1.0,100,0.00,,,0.01,Wunderground v.1.15,2013-07-11 11:14:00,
2013-07-11 07:19:00,66.9,66.9,29.95,WSW,254,0.0,1.0,100,0.00,,,0.01,Wunderground v.1.15,2013-07-11 11:19:00,
2013-07-11 07:24:00,67.1,67.1,29.95,WSW,254,0.0,1.0,100,0.00,,,0.01,Wunderground v.1.15,2013-07-11 11:24:00,
2013-07-11 07:29:00,67.1,67.1,29.95,WSW,254,0.0,1.0,100,0.00,,,0.01,Wunderground v.1.15,2013-07-11 11:29:00,
2013-07-11 07:34:00,67.3,67.3,29.95,West,260,0.0,0.0,100,0.00,,,0.01,Wunderground v.1.15,2013-07-11 11:34:00,
2013-07-11 07:39:00,67.4,67.4,29.95,West,260,0.0,0.0,100,0.00,,,0.01,Wunderground v.1.15,2013-07-11 11:39:00,
2013-07-11 07:44:00,67.6,67.6,29.95,West,260,0.0,0.0,100,0.00,,,0.01,Wunderground v.1.15,2013-07-11 11:44:00,
2013-07-11 07:49:00,67.8,67.8,29.96,West,260,0.0,1.0,100,0.00,,,0.01,Wunderground v.1.15,2013-07-11 11:49:00,
2013-07-11 07:54:00,67.8,67.8,29.96,West,260,0.0,0.0,100,0.00,,,0.01,Wunderground v.1.15,2013-07-11 11:54:00,
2013-07-11 07:59:00,67.9,67.9,29.96,West,260,0.0,1.0,100,0.00,,,0.01,Wunderground v.1.15,2013-07-11 11:59:00,
2013-07-11 08:04:00,68.1,68.1,29.96,West,260,0.0,0.0,100,0.00,,,0.01,Wunderground v.1.15,2013-07-11 12:04:00,
2013-07-11 08:09:00,68.4,68.4,29.96,West,260,0.0,1.0,100,0.00,,,0.01,Wunderground v.1.15,2013-07-11 12:09:00,
2013-07-11 08:14:00,68.6,68.6,29.96,West,260,0.0,1.0,100,0.00,,,0.01,Wunderground v.1.15,2013-07-11 12:14:00,
2013-07-11 08:19:00,68.8,68.8,29.96,West,260,0.0,1.0,100,0.00,,,0.01,Wunderground v.1.15,2013-07-11 12:19:00,
2013-07-11 08:24:00,68.9,68.9,29.96,West,260,0.0,0.0,100,0.00,,,0.01,Wunderground v.1.15,2013-07-11 12:24:00,
2013-07-11 08:29:00,69.3,69.3,29.96,West,260,0.0,0.0,100,0.00,,,0.01,Wunderground v.1.15,2013-07-11 12:29:00,
2013-07-11 08:34:00,69.6,69.6,29.95,West,260,0.0,0.0,100,0.00,,,0.01,Wunderground v.1.15,2013-07-11 12:34:00,
2013-07-11 08:39:00,69.9,69.9,29.95,West,260,0.0,0.0,100,0.00,,,0.01,Wunderground v.1.15,2013-07-11 12:39:00,
2013-07-11 08:44:00,70.1,70.1,29.95,West,260,0.0,0.0,100,0.00,,,0.01,Wunderground v.1.15,2013-07-11 12:44:00,
2013-07-11 08:49:00,70.1,70.1,29.96,West,260,0.0,0.0,100,0.00,,,0.01,Wunderground v.1.15,2013-07-11 12:49:00,
2013-07-11 08:54:00,70.3,70.3,29.96,West,260,0.0,0.0,100,0.00,,,0.01,Wunderground v.1.15,2013-07-11 12:54:00,
2013-07-11 09:00:00,70.4,70.4,29.96,West,260,0.0,0.0,100,0.00,,,0.01,Wunderground v.1.15,2013-07-11 13:00:00,
2013-07-11 09:06:00,70.8,70.8,29.96,West,260,0.0,0.0,100,0.00,,,0.01,Wunderground v.1.15,2013-07-11 13:06:00,
2013-07-11 09:11:00,70.9,70.9,29.96,West,260,0.0,0.0,100,0.00,,,0.01,Wunderground v.1.15,2013-07-11 13:11:00,
2013-07-11 09:16:00,71.3,71.3,29.96,West,260,0.0,0.0,100,0.00,,,0.01,Wunderground v.1.15,2013-07-11 13:16:00,
2013-07-11 09:21:00,71.3,71.3,29.96,West,260,0.0,0.0,100,0.00,,,0.01,Wunderground v.1.15,2013-07-11 13:21:00,
2013-07-11 09:27:00,71.3,71.3,29.96,West,260,0.0,0.0,100,0.00,,,0.01,Wunderground v.1.15,2013-07-11 13:27:00,
2013-07-11 09:32:00,71.8,71.8,29.96,West,260,0.0,0.0,100,0.00,,,0.01,Wunderground v.1.15,2013-07-11 13:32:00,
2013-07-11 09:37:00,71.5,71.5,29.96,West,260,2.0,4.0,100,0.00,,,0.01,Wunderground v.1.15,2013-07-11 13:37:00,
2013-07-11 09:42:00,70.9,70.6,29.96,WSW,255,0.0,2.0,99,0.00,,,0.01,Wunderground v.1.15,2013-07-11 13:42:00,
2013-07-11 09:47:00,70.4,70.1,29.96,SW,214,3.0,3.0,99,0.00,,,0.01,Wunderground v.1.15,2013-07-11 13:47:00,
2013-07-11 09:52:00,69.8,69.5,29.96,SSW,210,0.0,1.0,99,0.00,,,0.01,Wunderground v.1.15,2013-07-11 13:52:00,
2013-07-11 09:58:00,70.3,70.3,29.96,SSW,210,0.0,4.0,100,0.00,,,0.01,Wunderground v.1.15,2013-07-11 13:58:00,
2013-07-11 10:03:00,69.6,69.3,29.97,SSW,207,0.0,0.0,99,0.00,,,0.01,Wunderground v.1.15,2013-07-11 14:03:00,
2013-07-11 10:09:00,69.4,69.1,29.97,SSW,207,0.0,1.0,99,0.00,,,0.01,Wunderground v.1.15,2013-07-11 14:09:00,
2013-07-11 10:14:00,69.3,69.3,29.97,SSW,207,0.0,0.0,100,0.00,,,0.01,Wunderground v.1.15,2013-07-11 14:14:00,
2013-07-11 10:19:00,69.3,69.3,29.98,SSW,207,0.0,0.0,100,0.00,,,0.01,Wunderground v.1.15,2013-07-11 14:19:00,
2013-07-11 10:24:00,69.4,69.4,29.98,SSW,207,0.0,0.0,100,0.00,,,0.01,Wunderground v.1.15,2013-07-11 14:24:00,
2013-07-11 10:29:00,69.4,69.4,29.98,SSW,203,0.0,0.0,100,0.00,,,0.01,Wunderground v.1.15,2013-07-11 14:29:00,
2013-07-11 10:34:00,69.4,69.4,29.96,South,188,3.0,4.0,100,0.00,,,0.01,Wunderground v.1.15,2013-07-11 14:34:00,
2013-07-11 10:39:00,69.4,69.4,29.96,South,187,3.0,4.0,100,0.00,,,0.01,Wunderground v.1.15,2013-07-11 14:39:00,
2013-07-11 10:45:00,69.3,69.3,29.96,South,186,0.0,4.0,100,0.00,,,0.01,Wunderground v.1.15,2013-07-11 14:45:00,
2013-07-11 10:50:00,69.4,69.4,29.97,South,186,0.0,1.0,100,0.00,,,0.01,Wunderground v.1.15,2013-07-11 14:50:00,
2013-07-11 10:55:00,69.4,69.4,29.97,South,186,2.0,2.0,100,0.00,,,0.01,Wunderground v.1.15,2013-07-11 14:55:00,
2013-07-11 11:00:00,69.4,69.4,29.97,South,186,3.0,4.0,100,0.00,,,0.01,Wunderground v.1.15,2013-07-11 15:00:00,
2013-07-11 11:06:00,69.3,69.3,29.97,South,177,0.0,4.0,100,0.00,,,0.01,Wunderground v.1.15,2013-07-11 15:06:00,
2013-07-11 11:11:00,69.4,69.4,29.97,South,177,0.0,1.0,100,0.00,,,0.01,Wunderground v.1.15,2013-07-11 15:11:00,
2013-07-11 11:17:00,69.3,69.3,29.98,South,177,0.0,1.0,100,0.00,,,0.01,Wunderground v.1.15,2013-07-11 15:17:00,
2013-07-11 11:22:00,69.4,69.4,29.98,South,177,0.0,0.0,100,0.00,,,0.01,Wunderground v.1.15,2013-07-11 15:22:00,
2013-07-11 11:27:00,69.4,69.4,29.98,South,177,0.0,3.0,100,0.00,,,0.01,Wunderground v.1.15,2013-07-11 15:27:00,
2013-07-11 11:32:00,69.4,69.4,29.98,South,177,0.0,0.0,100,0.00,,,0.01,Wunderground v.1.15,2013-07-11 15:32:00,
2013-07-11 11:37:00,69.9,69.9,29.98,South,177,0.0,0.0,100,0.00,,,0.01,Wunderground v.1.15,2013-07-11 15:37:00,
2013-07-11 11:42:00,69.8,69.8,29.98,South,177,0.0,0.0,100,0.00,,,0.01,Wunderground v.1.15,2013-07-11 15:42:00,
2013-07-11 11:47:00,70.1,70.1,29.97,South,177,0.0,0.0,100,0.00,,,0.01,Wunderground v.1.15,2013-07-11 15:47:00,
2013-07-11 11:52:00,70.4,70.4,29.97,South,177,0.0,0.0,100,0.00,,,0.01,Wunderground v.1.15,2013-07-11 15:52:00,
2013-07-11 11:57:00,70.4,70.4,29.97,South,177,2.0,3.0,100,0.00,,,0.01,Wunderground v.1.15,2013-07-11 15:57:00,
2013-07-11 12:02:00,70.3,70.3,29.97,South,177,0.0,1.0,100,0.00,,,0.01,Wunderground v.1.15,2013-07-11 16:02:00,
2013-07-11 12:07:00,70.3,70.3,29.97,South,177,0.0,4.0,100,0.00,,,0.01,Wunderground v.1.15,2013-07-11 16:07:00,
2013-07-11 12:13:00,70.3,70.3,29.97,South,177,0.0,1.0,100,0.00,,,0.01,Wunderground v.1.15,2013-07-11 16:13:00,
2013-07-11 12:18:00,70.4,70.4,29.97,South,177,3.0,4.0,100,0.00,,,0.01,Wunderground v.1.15,2013-07-11 16:18:00,
2013-07-11 12:24:00,70.8,70.8,29.97,South,177,0.0,4.0,100,0.00,,,0.01,Wunderground v.1.15,2013-07-11 16:24:00,
2013-07-11 12:29:00,70.4,70.4,29.97,South,177,3.0,4.0,100,0.00,,,0.01,Wunderground v.1.15,2013-07-11 16:29:00,
2013-07-11 12:34:00,70.4,70.4,29.97,South,177,0.0,1.0,100,0.00,,,0.01,Wunderground v.1.15,2013-07-11 16:34:00,
2013-07-11 12:39:00,71.1,71.1,29.97,South,177,0.0,4.0,100,0.00,,,0.01,Wunderground v.1.15,2013-07-11 16:39:00,
2013-07-11 12:44:00,71.1,71.1,29.97,South,177,0.0,1.0,100,0.00,,,0.01,Wunderground v.1.15,2013-07-11 16:44:00,
2013-07-11 12:49:00,71.8,71.8,29.96,South,177,0.0,1.0,100,0.00,,,0.01,Wunderground v.1.15,2013-07-11 16:49:00,
2013-07-11 12:54:00,71.6,71.6,29.96,South,177,0.0,5.0,100,0.00,,,0.01,Wunderground v.1.15,2013-07-11 16:54:00,
2013-07-11 13:00:00,71.8,71.8,29.95,South,177,0.0,1.0,100,0.00,,,0.01,Wunderground v.1.15,2013-07-11 17:00:00,
2013-07-11 13:05:00,72.7,72.7,29.95,South,177,0.0,1.0,100,0.00,,,0.01,Wunderground v.1.15,2013-07-11 17:05:00,
2013-07-11 13:10:00,72.7,72.4,29.95,South,177,0.0,1.0,99,0.00,,,0.01,Wunderground v.1.15,2013-07-11 17:10:00,
2013-07-11 13:16:00,73.2,72.3,29.95,ESE,122,5.0,6.0,97,0.00,,,0.01,Wunderground v.1.15,2013-07-11 17:16:00,
2013-07-11 13:21:00,73.3,71.8,29.95,East,95,0.0,2.0,95,0.00,,,0.01,Wunderground v.1.15,2013-07-11 17:21:00,
2013-07-11 13:26:00,73.5,71.4,29.95,East,95,0.0,5.0,93,0.00,,,0.01,Wunderground v.1.15,2013-07-11 17:26:00,
2013-07-11 13:31:00,73.9,71.7,29.94,East,95,4.0,5.0,93,0.00,,,0.01,Wunderground v.1.15,2013-07-11 17:31:00,
2013-07-11 13:36:00,74.9,72.1,29.94,East,95,1.0,6.0,91,0.00,,,0.01,Wunderground v.1.15,2013-07-11 17:36:00,
2013-07-11 13:41:00,74.9,71.1,29.94,East,95,5.0,5.0,88,0.00,,,0.01,Wunderground v.1.15,2013-07-11 17:41:00,
2013-07-11 13:46:00,74.7,70.9,29.94,East,93,0.0,5.0,88,0.00,,,0.01,Wunderground v.1.15,2013-07-11 17:46:00,
2013-07-11 13:52:00,75.4,71.3,29.94,East,93,0.0,5.0,87,0.00,,,0.01,Wunderground v.1.15,2013-07-11 17:52:00,
2013-07-11 13:57:00,76.1,71.3,29.94,ENE,57,4.0,6.0,85,0.00,,,0.01,Wunderground v.1.15,2013-07-11 17:57:00,
2013-07-11 14:03:00,75.8,70.6,29.93,ENE,58,6.0,6.0,84,0.00,,,0.01,Wunderground v.1.15,2013-07-11 18:03:00,
2013-07-11 14:08:00,76.1,71.6,29.93,ENE,58,6.0,6.0,86,0.00,,,0.01,Wunderground v.1.15,2013-07-11 18:08:00,
2013-07-11 14:14:00,76.1,71.3,29.93,East,83,2.0,10.0,85,0.00,,,0.01,Wunderground v.1.15,2013-07-11 18:14:00,
2013-07-11 14:20:00,76.7,72.9,29.93,East,83,4.0,4.0,88,0.00,,,0.01,Wunderground v.1.15,2013-07-11 18:20:00,
2013-07-11 14:25:00,76.8,71.2,29.93,ENE,73,4.0,6.0,83,0.00,,,0.01,Wunderground v.1.15,2013-07-11 18:25:00,
2013-07-11 14:31:00,77.0,72.1,29.93,East,91,5.0,6.0,85,0.00,,,0.01,Wunderground v.1.15,2013-07-11 18:31:00,
2013-07-11 14:36:00,77.2,72.0,29.93,ENE,70,4.0,13.0,84,0.00,,,0.01,Wunderground v.1.15,2013-07-11 18:36:00,
2013-07-11 14:41:00,77.0,71.8,29.93,East,81,6.0,6.0,84,0.00,,,0.01,Wunderground v.1.15,2013-07-11 18:41:00,
2013-07-11 14:46:00,76.7,71.8,29.93,ENE,60,5.0,9.0,85,0.00,,,0.01,Wunderground v.1.15,2013-07-11 18:46:00,
2013-07-11 14:52:00,76.1,71.3,29.93,ENE,78,0.0,5.0,85,0.00,,,0.01,Wunderground v.1.15,2013-07-11 18:52:00,
2013-07-11 14:57:00,76.7,71.5,29.93,ENE,78,3.0,5.0,84,0.00,,,0.01,Wunderground v.1.15,2013-07-11 18:57:00,
2013-07-11 15:02:00,76.7,71.5,29.92,East,81,4.0,4.0,84,0.00,,,0.01,Wunderground v.1.15,2013-07-11 19:02:00,
2013-07-11 15:07:00,76.8,70.9,29.92,East,81,6.0,6.0,82,0.00,,,0.01,Wunderground v.1.15,2013-07-11 19:07:00,
2013-07-11 15:12:00,77.2,72.0,29.92,ENE,65,2.0,6.0,84,0.00,,,0.01,Wunderground v.1.15,2013-07-11 19:12:00,
2013-07-11 15:17:00,77.4,71.5,29.92,East,82,1.0,6.0,82,0.00,,,0.01,Wunderground v.1.15,2013-07-11 19:17:00,
2013-07-11 15:22:00,77.4,70.7,29.92,East,82,0.0,5.0,80,0.00,,,0.01,Wunderground v.1.15,2013-07-11 19:22:00,
2013-07-11 15:27:00,77.7,71.0,29.92,East,82,2.0,6.0,80,0.00,,,0.01,Wunderground v.1.15,2013-07-11 19:27:00,
2013-07-11 15:32:00,78.1,71.8,29.91,East,82,0.0,5.0,81,0.00,,,0.01,Wunderground v.1.15,2013-07-11 19:32:00,
2013-07-11 15:38:00,78.3,70.5,29.91,East,82,0.0,5.0,77,0.00,,,0.01,Wunderground v.1.15,2013-07-11 19:38:00,
2013-07-11 15:43:00,78.1,70.3,29.91,East,82,4.0,7.0,77,0.00,,,0.01,Wunderground v.1.15,2013-07-11 19:43:00,
2013-07-11 15:48:00,77.9,71.2,29.90,ENE,70,4.0,7.0,80,0.00,,,0.01,Wunderground v.1.15,2013-07-11 19:48:00,
2013-07-11 15:53:00,77.9,71.6,29.90,ENE,70,0.0,5.0,81,0.00,,,0.01,Wunderground v.1.15,2013-07-11 19:53:00,
2013-07-11 15:58:00,77.7,70.7,29.90,ENE,70,0.0,5.0,79,0.00,,,0.01,Wunderground v.1.15,2013-07-11 19:58:00,
2013-07-11 16:03:00,77.9,70.5,29.90,ENE,69,1.0,6.0,78,0.00,,,0.01,Wunderground v.1.15,2013-07-11 20:03:00,
2013-07-11 16:08:00,77.9,71.2,29.90,ENE,72,1.0,6.0,80,0.00,,,0.01,Wunderground v.1.15,2013-07-11 20:08:00,
2013-07-11 16:13:00,77.6,70.6,29.90,NE,56,0.0,5.0,79,0.00,,,0.01,Wunderground v.1.15,2013-07-11 20:13:00,
2013-07-11 16:18:00,77.6,71.3,29.90,NE,56,0.0,5.0,81,0.00,,,0.01,Wunderground v.1.15,2013-07-11 20:18:00,
2013-07-11 16:23:00,77.4,70.7,29.90,NE,56,0.0,4.0,80,0.00,,,0.01,Wunderground v.1.15,2013-07-11 20:23:00,
2013-07-11 16:29:00,77.9,71.2,29.90,ENE,57,5.0,5.0,80,0.00,,,0.01,Wunderground v.1.15,2013-07-11 20:29:00,
2013-07-11 16:34:00,78.1,71.8,29.90,ENE,57,0.0,3.0,81,0.00,,,0.01,Wunderground v.1.15,2013-07-11 20:34:00,
2013-07-11 16:39:00,78.1,70.7,29.90,ENE,57,0.0,4.0,78,0.00,,,0.01,Wunderground v.1.15,2013-07-11 20:39:00,
2013-07-11 16:44:00,77.6,70.2,29.90,ENE,57,0.0,3.0,78,0.00,,,0.01,Wunderground v.1.15,2013-07-11 20:44:00,
2013-07-11 16:49:00,77.4,71.1,29.90,ENE,57,2.0,4.0,81,0.00,,,0.01,Wunderground v.1.15,2013-07-11 20:49:00,
2013-07-11 16:54:00,76.8,70.5,29.90,ENE,57,0.0,4.0,81,0.00,,,0.01,Wunderground v.1.15,2013-07-11 20:54:00,
2013-07-11 16:59:00,76.8,71.2,29.90,ENE,57,0.0,4.0,83,0.00,,,0.01,Wunderground v.1.15,2013-07-11 20:59:00,
2013-07-11 17:04:00,76.7,70.4,29.90,ENE,57,0.0,1.0,81,0.00,,,0.01,Wunderground v.1.15,2013-07-11 21:04:00,
2013-07-11 17:09:00,76.8,71.6,29.90,ENE,57,0.0,1.0,84,0.00,,,0.01,Wunderground v.1.15,2013-07-11 21:09:00,
2013-07-11 17:14:00,76.8,71.6,29.90,ENE,57,0.0,0.0,84,0.00,,,0.01,Wunderground v.1.15,2013-07-11 21:14:00,
2013-07-11 17:19:00,77.0,72.8,29.89,ENE,57,0.0,0.0,87,0.00,,,0.01,Wunderground v.1.15,2013-07-11 21:19:00,
2013-07-11 17:24:00,77.2,71.6,29.89,ENE,57,0.0,0.0,83,0.00,,,0.01,Wunderground v.1.15,2013-07-11 21:24:00,
2013-07-11 17:30:00,77.9,72.3,29.89,ENE,57,0.0,0.0,83,0.00,,,0.01,Wunderground v.1.15,2013-07-11 21:30:00,
2013-07-11 17:35:00,78.1,72.5,29.88,ENE,57,0.0,0.0,83,0.00,,,0.01,Wunderground v.1.15,2013-07-11 21:35:00,
2013-07-11 17:40:00,78.5,72.2,29.88,ENE,57,0.0,1.0,81,0.00,,,0.01,Wunderground v.1.15,2013-07-11 21:40:00,
2013-07-11 17:46:00,78.5,72.2,29.88,ENE,57,0.0,1.0,81,0.00,,,0.01,Wunderground v.1.15,2013-07-11 21:46:00,
2013-07-11 17:51:00,78.5,72.5,29.88,ENE,57,0.0,0.0,82,0.00,,,0.01,Wunderground v.1.15,2013-07-11 21:51:00,
2013-07-11 17:56:00,78.3,72.3,29.88,ENE,57,0.0,0.0,82,0.00,,,0.01,Wunderground v.1.15,2013-07-11 21:56:00,
2013-07-11 18:02:00,78.3,73.4,29.88,ENE,57,0.0,0.0,85,0.00,,,0.01,Wunderground v.1.15,2013-07-11 22:02:00,
2013-07-11 18:07:00,77.9,73.4,29.88,ENE,57,0.0,0.0,86,0.00,,,0.01,Wunderground v.1.15,2013-07-11 22:07:00,
2013-07-11 18:12:00,77.7,73.5,29.88,ENE,57,0.0,0.0,87,0.00,,,0.01,Wunderground v.1.15,2013-07-11 22:12:00,
2013-07-11 18:17:00,77.6,72.7,29.87,ENE,57,0.0,0.0,85,0.00,,,0.01,Wunderground v.1.15,2013-07-11 22:17:00,
2013-07-11 18:22:00,78.1,73.6,29.87,ENE,57,0.0,0.0,86,0.00,,,0.01,Wunderground v.1.15,2013-07-11 22:22:00,
2013-07-11 18:27:00,78.5,72.9,29.87,ENE,57,0.0,0.0,83,0.00,,,0.01,Wunderground v.1.15,2013-07-11 22:27:00,
2013-07-11 18:32:00,78.6,72.3,29.86,ENE,57,0.0,1.0,81,0.00,,,0.01,Wunderground v.1.15,2013-07-11 22:32:00,
2013-07-11 18:37:00,79.0,73.7,29.86,ENE,57,0.0,1.0,84,0.00,,,0.01,Wunderground v.1.15,2013-07-11 22:37:00,
2013-07-11 18:43:00,78.8,73.2,29.86,ENE,57,1.0,2.0,83,0.00,,,0.01,Wunderground v.1.15,2013-07-11 22:43:00,
2013-07-11 18:48:00,78.6,72.6,29.86,ENE,57,0.0,3.0,82,0.00,,,0.01,Wunderground v.1.15,2013-07-11 22:48:00,
2013-07-11 18:53:00,78.6,72.6,29.86,ENE,57,0.0,0.0,82,0.00,,,0.01,Wunderground v.1.15,2013-07-11 22:53:00,
2013-07-11 18:58:00,78.6,72.3,29.86,ENE,57,0.0,0.0,81,0.00,,,0.01,Wunderground v.1.15,2013-07-11 22:58:00,
2013-07-11 19:03:00,78.6,72.3,29.86,ENE,57,0.0,0.0,81,0.00,,,0.01,Wunderground v.1.15,2013-07-11 23:03:00,
2013-07-11 19:08:00,78.5,71.4,29.86,ENE,57,0.0,0.0,79,0.00,,,0.01,Wunderground v.1.15,2013-07-11 23:08:00,
2013-07-11 19:13:00,78.3,70.5,29.86,ENE,57,0.0,0.0,77,0.00,,,0.01,Wunderground v.1.15,2013-07-11 23:13:00,
2013-07-11 19:19:00,78.1,71.4,29.88,ENE,57,0.0,0.0,80,0.00,,,0.01,Wunderground v.1.15,2013-07-11 23:19:00,
2013-07-11 19:24:00,78.1,71.8,29.88,ENE,57,0.0,0.0,81,0.00,,,0.01,Wunderground v.1.15,2013-07-11 23:24:00,
2013-07-11 19:29:00,78.1,72.2,29.88,ENE,57,0.0,0.0,82,0.00,,,0.01,Wunderground v.1.15,2013-07-11 23:29:00,
2013-07-11 19:35:00,77.9,72.7,29.87,ENE,57,0.0,0.0,84,0.00,,,0.01,Wunderground v.1.15,2013-07-11 23:35:00,
2013-07-11 19:40:00,77.6,72.0,29.87,ENE,57,0.0,0.0,83,0.00,,,0.01,Wunderground v.1.15,2013-07-11 23:40:00,
2013-07-11 19:45:00,77.6,72.0,29.86,ENE,57,0.0,0.0,83,0.00,,,0.01,Wunderground v.1.15,2013-07-11 23:45:00,
2013-07-11 19:51:00,77.6,72.7,29.86,ENE,57,0.0,0.0,85,0.00,,,0.01,Wunderground v.1.15,2013-07-11 23:51:00,
2013-07-11 19:56:00,77.4,72.9,29.86,ENE,57,0.0,0.0,86,0.00,,,0.01,Wunderground v.1.15,2013-07-11 23:56:00,
2013-07-11 20:01:00,77.4,73.2,29.86,ENE,57,0.0,0.0,87,0.00,,,0.01,Wunderground v.1.15,2013-07-12 00:01:00,
2013-07-11 20:07:00,77.2,72.3,29.86,ENE,57,0.0,0.0,85,0.00,,,0.01,Wunderground v.1.15,2013-07-12 00:07:00,
2013-07-11 20:12:00,77.0,73.5,29.86,ENE,57,0.0,0.0,89,0.00,,,0.01,Wunderground v.1.15,2013-07-12 00:12:00,
2013-07-11 20:17:00,76.8,73.6,29.86,ENE,57,0.0,0.0,90,0.00,,,0.01,Wunderground v.1.15,2013-07-12 00:17:00,
2013-07-11 20:22:00,76.5,73.3,29.86,ENE,57,0.0,0.0,90,0.00,,,0.01,Wunderground v.1.15,2013-07-12 00:22:00,
2013-07-11 20:27:00,76.5,73.7,29.86,ENE,57,0.0,0.0,91,0.00,,,0.01,Wunderground v.1.15,2013-07-12 00:27:00,
2013-07-11 20:33:00,76.3,73.5,29.86,ENE,57,0.0,0.0,91,0.00,,,0.01,Wunderground v.1.15,2013-07-12 00:33:00,
2013-07-11 20:38:00,76.1,73.3,29.86,ENE,57,0.0,0.0,91,0.00,,,0.01,Wunderground v.1.15,2013-07-12 00:38:00,
2013-07-11 20:43:00,76.1,73.3,29.86,ENE,57,0.0,0.0,91,0.00,,,0.01,Wunderground v.1.15,2013-07-12 00:43:00,
2013-07-11 20:48:00,76.0,73.5,29.87,ENE,57,1.0,1.0,92,0.00,,,0.01,Wunderground v.1.15,2013-07-12 00:48:00,
2013-07-11 20:53:00,75.6,72.8,29.87,ENE,57,4.0,5.0,91,0.00,,,0.01,Wunderground v.1.15,2013-07-12 00:53:00,
2013-07-11 20:58:00,75.1,72.0,29.87,ENE,62,4.0,9.0,90,0.00,,,0.01,Wunderground v.1.15,2013-07-12 00:58:00,
2013-07-11 21:03:00,74.4,70.9,29.88,ENE,62,0.0,3.0,89,0.00,,,0.01,Wunderground v.1.15,2013-07-12 01:03:00,
2013-07-11 21:08:00,73.9,69.8,29.88,ENE,62,0.0,3.0,87,0.00,,,0.01,Wunderground v.1.15,2013-07-12 01:08:00,
2013-07-11 21:14:00,73.7,69.6,29.88,ENE,62,0.0,0.0,87,0.00,,,0.01,Wunderground v.1.15,2013-07-12 01:14:00,
2013-07-11 21:19:00,73.7,69.9,29.87,ENE,62,0.0,0.0,88,0.00,,,0.01,Wunderground v.1.15,2013-07-12 01:19:00,
2013-07-11 21:24:00,73.3,70.2,29.87,ENE,62,0.0,0.0,90,0.00,,,0.01,Wunderground v.1.15,2013-07-12 01:24:00,
2013-07-11 21:29:00,73.3,70.8,29.87,ENE,62,0.0,0.0,92,0.00,,,0.01,Wunderground v.1.15,2013-07-12 01:29:00,
2013-07-11 21:34:00,73.2,71.1,29.87,ENE,62,0.0,0.0,93,0.00,,,0.01,Wunderground v.1.15,2013-07-12 01:34:00,
2013-07-11 21:39:00,73.2,71.1,29.87,ENE,62,0.0,1.0,93,0.00,,,0.01,Wunderground v.1.15,2013-07-12 01:39:00,
2013-07-11 21:44:00,73.2,71.4,29.87,ENE,62,0.0,1.0,94,0.00,,,0.01,Wunderground v.1.15,2013-07-12 01:44:00,
2013-07-11 21:49:00,73.2,71.4,29.88,ENE,62,2.0,4.0,94,0.00,,,0.01,Wunderground v.1.15,2013-07-12 01:49:00,
2013-07-11 21:54:00,73.3,71.2,29.88,ENE,62,0.0,1.0,93,0.00,,,0.01,Wunderground v.1.15,2013-07-12 01:54:00,
2013-07-11 22:00:00,73.3,70.8,29.88,ENE,62,1.0,1.0,92,0.00,,,0.01,Wunderground v.1.15,2013-07-12 02:00:00,
2013-07-11 22:05:00,73.5,71.0,29.89,ENE,62,3.0,3.0,92,0.00,,,0.01,Wunderground v.1.15,2013-07-12 02:05:00,
2013-07-11 22:10:00,73.5,70.4,29.89,ENE,62,4.0,4.0,90,0.00,,,0.01,Wunderground v.1.15,2013-07-12 02:10:00,
2013-07-11 22:15:00,73.5,70.1,29.89,ENE,62,0.0,4.0,89,0.00,,,0.01,Wunderground v.1.15,2013-07-12 02:15:00,
2013-07-11 22:21:00,73.5,70.1,29.89,ENE,62,2.0,2.0,89,0.00,,,0.01,Wunderground v.1.15,2013-07-12 02:21:00,
2013-07-11 22:26:00,73.5,70.4,29.89,ENE,62,0.0,2.0,90,0.00,,,0.01,Wunderground v.1.15,2013-07-12 02:26:00,
2013-07-11 22:32:00,73.5,70.4,29.89,ENE,62,0.0,0.0,90,0.00,,,0.01,Wunderground v.1.15,2013-07-12 02:32:00,
2013-07-11 22:37:00,73.5,70.1,29.89,ENE,62,0.0,0.0,89,0.00,,,0.01,Wunderground v.1.15,2013-07-12 02:37:00,
2013-07-11 22:42:00,73.5,70.4,29.89,ENE,62,0.0,0.0,90,0.00,,,0.01,Wunderground v.1.15,2013-07-12 02:42:00,
2013-07-11 22:47:00,73.2,70.4,29.90,ENE,62,0.0,0.0,91,0.00,,,0.01,Wunderground v.1.15,2013-07-12 02:47:00,
2013-07-11 22:52:00,73.0,70.5,29.90,ENE,62,1.0,1.0,92,0.00,,,0.01,Wunderground v.1.15,2013-07-12 02:52:00,
2013-07-11 22:57:00,72.8,70.3,29.90,ENE,62,0.0,1.0,92,0.00,,,0.01,Wunderground v.1.15,2013-07-12 02:57:00,
2013-07-11 23:02:00,72.5,70.0,29.90,ENE,62,0.0,0.0,92,0.00,,,0.01,Wunderground v.1.15,2013-07-12 03:02:00,
2013-07-11 23:08:00,72.3,69.8,29.90,ENE,62,0.0,1.0,92,0.00,,,0.01,Wunderground v.1.15,2013-07-12 03:08:00,
2013-07-11 23:13:00,72.3,69.8,29.90,ENE,62,1.0,1.0,92,0.00,,,0.01,Wunderground v.1.15,2013-07-12 03:13:00,
2013-07-11 23:18:00,72.3,70.2,29.90,ENE,62,0.0,1.0,93,0.00,,,0.01,Wunderground v.1.15,2013-07-12 03:18:00,
2013-07-11 23:23:00,72.1,70.0,29.90,ENE,62,0.0,0.0,93,0.00,,,0.01,Wunderground v.1.15,2013-07-12 03:23:00,
2013-07-11 23:28:00,72.0,70.2,29.90,ENE,62,0.0,1.0,94,0.00,,,0.01,Wunderground v.1.15,2013-07-12 03:28:00,
2013-07-11 23:33:00,71.8,70.0,29.90,ENE,62,0.0,1.0,94,0.00,,,0.01,Wunderground v.1.15,2013-07-12 03:33:00,
2013-07-11 23:39:00,71.6,69.8,29.90,ENE,62,0.0,1.0,94,0.00,,,0.01,Wunderground v.1.15,2013-07-12 03:39:00,
2013-07-11 23:44:00,71.6,69.8,29.90,ENE,62,0.0,1.0,94,0.00,,,0.01,Wunderground v.1.15,2013-07-12 03:44:00,
2013-07-11 23:49:00,71.8,70.0,29.90,ENE,62,1.0,4.0,94,0.00,,,0.01,Wunderground v.1.15,2013-07-12 03:49:00,
2013-07-11 23:54:00,71.8,69.7,29.90,ENE,62,0.0,0.0,93,0.00,,,0.01,Wunderground v.1.15,2013-07-12 03:54:00,